sensor_id;sensor_type;location;lat;lon;timestamp;P1;durP1;ratioP1;P2;durP2;ratioP2
2388;SDS011;1205;47.984;7.668;2023-05-10T00:01:37;4.23;;;1.07;;
2388;SDS011;1205;47.984;7.668;2023-05-10T00:04:03;1.80;;;1.00;;
2388;SDS011;1205;47.984;7.668;2023-05-10T00:06:28;1.00;;;1.00;;
2388;SDS011;1205;47.984;7.668;2023-05-10T00:08:55;1.07;;;1.07;;
2388;SDS011;1205;47.984;7.668;2023-05-10T00:11:20;2.93;;;0.80;;
2388;SDS011;1205;47.984;7.668;2023-05-10T00:13:46;1.20;;;1.10;;
2388;SDS011;1205;47.984;7.668;2023-05-10T00:16:12;4.97;;;1.00;;
2388;SDS011;1205;47.984;7.668;2023-05-10T00:18:38;1.20;;;0.90;;
2388;SDS011;1205;47.984;7.668;2023-05-10T00:21:04;0.70;;;0.70;;
2388;SDS011;1205;47.984;7.668;2023-05-10T00:23:30;0.97;;;0.97;;
2388;SDS011;1205;47.984;7.668;2023-05-10T00:25:55;2.77;;;0.97;;
2388;SDS011;1205;47.984;7.668;2023-05-10T00:28:21;3.60;;;1.00;;
2388;SDS011;1205;47.984;7.668;2023-05-10T00:30:47;1.00;;;1.00;;
2388;SDS011;1205;47.984;7.668;2023-05-10T00:33:12;1.20;;;1.20;;
2388;SDS011;1205;47.984;7.668;2023-05-10T00:35:38;1.53;;;0.80;;
2388;SDS011;1205;47.984;7.668;2023-05-10T00:38:03;1.10;;;1.10;;
2388;SDS011;1205;47.984;7.668;2023-05-10T00:40:29;1.10;;;0.97;;
2388;SDS011;1205;47.984;7.668;2023-05-10T00:42:55;1.23;;;1.00;;
2388;SDS011;1205;47.984;7.668;2023-05-10T00:45:22;1.07;;;0.90;;
2388;SDS011;1205;47.984;7.668;2023-05-10T00:47:47;0.80;;;0.80;;
2388;SDS011;1205;47.984;7.668;2023-05-10T00:50:14;1.77;;;0.70;;
2388;SDS011;1205;47.984;7.668;2023-05-10T00:52:40;0.70;;;0.70;;
2388;SDS011;1205;47.984;7.668;2023-05-10T00:55:07;0.77;;;0.77;;
2388;SDS011;1205;47.984;7.668;2023-05-10T00:57:34;1.20;;;1.10;;
2388;SDS011;1205;47.984;7.668;2023-05-10T01:00:00;2.67;;;0.90;;
2388;SDS011;1205;47.984;7.668;2023-05-10T01:02:27;0.97;;;0.97;;
2388;SDS011;1205;47.984;7.668;2023-05-10T01:04:52;1.80;;;0.83;;
2388;SDS011;1205;47.984;7.668;2023-05-10T01:07:19;0.70;;;0.70;;
2388;SDS011;1205;47.984;7.668;2023-05-10T01:09:44;4.20;;;1.10;;
2388;SDS011;1205;47.984;7.668;2023-05-10T01:12:10;1.03;;;0.93;;
2388;SDS011;1205;47.984;7.668;2023-05-10T01:14:36;1.10;;;1.00;;
2388;SDS011;1205;47.984;7.668;2023-05-10T01:17:02;0.80;;;0.80;;
2388;SDS011;1205;47.984;7.668;2023-05-10T01:19:30;2.87;;;0.90;;
2388;SDS011;1205;47.984;7.668;2023-05-10T01:36:14;3.20;;;1.20;;
2388;SDS011;1205;47.984;7.668;2023-05-10T01:39:11;2.43;;;1.10;;
2388;SDS011;1205;47.984;7.668;2023-05-10T01:41:55;0.90;;;0.87;;
2388;SDS011;1205;47.984;7.668;2023-05-10T01:47:04;1.03;;;1.03;;
2388;SDS011;1205;47.984;7.668;2023-05-10T01:49:55;3.60;;;1.10;;
2388;SDS011;1205;47.984;7.668;2023-05-10T01:52:25;1.10;;;1.10;;
2388;SDS011;1205;47.984;7.668;2023-05-10T01:54:55;1.00;;;1.00;;
2388;SDS011;1205;47.984;7.668;2023-05-10T01:57:26;1.00;;;1.00;;
2388;SDS011;1205;47.984;7.668;2023-05-10T01:59:57;1.33;;;1.00;;
2388;SDS011;1205;47.984;7.668;2023-05-10T02:02:24;2.47;;;1.20;;
2388;SDS011;1205;47.984;7.668;2023-05-10T02:04:52;1.10;;;0.93;;
2388;SDS011;1205;47.984;7.668;2023-05-10T02:07:20;1.40;;;1.40;;
2388;SDS011;1205;47.984;7.668;2023-05-10T02:09:48;2.87;;;1.13;;
2388;SDS011;1205;47.984;7.668;2023-05-10T02:12:14;2.20;;;1.17;;
2388;SDS011;1205;47.984;7.668;2023-05-10T02:14:41;3.47;;;1.43;;
2388;SDS011;1205;47.984;7.668;2023-05-10T02:17:08;3.30;;;1.30;;
2388;SDS011;1205;47.984;7.668;2023-05-10T02:19:36;2.83;;;1.20;;
2388;SDS011;1205;47.984;7.668;2023-05-10T02:22:04;1.10;;;1.10;;
2388;SDS011;1205;47.984;7.668;2023-05-10T02:24:31;1.40;;;1.07;;
2388;SDS011;1205;47.984;7.668;2023-05-10T02:26:58;2.20;;;1.03;;
2388;SDS011;1205;47.984;7.668;2023-05-10T02:29:25;6.00;;;1.10;;
2388;SDS011;1205;47.984;7.668;2023-05-10T02:31:52;1.30;;;1.20;;
2388;SDS011;1205;47.984;7.668;2023-05-10T02:34:21;1.60;;;1.17;;
2388;SDS011;1205;47.984;7.668;2023-05-10T02:36:48;6.40;;;1.23;;
2388;SDS011;1205;47.984;7.668;2023-05-10T02:39:15;2.00;;;1.10;;
2388;SDS011;1205;47.984;7.668;2023-05-10T02:41:45;1.43;;;1.43;;
2388;SDS011;1205;47.984;7.668;2023-05-10T02:44:12;1.57;;;1.47;;
2388;SDS011;1205;47.984;7.668;2023-05-10T02:46:40;1.73;;;1.63;;
2388;SDS011;1205;47.984;7.668;2023-05-10T02:49:07;1.70;;;1.60;;
2388;SDS011;1205;47.984;7.668;2023-05-10T02:51:34;1.93;;;1.13;;
2388;SDS011;1205;47.984;7.668;2023-05-10T02:54:15;1.30;;;1.20;;
2388;SDS011;1205;47.984;7.668;2023-05-10T02:56:53;4.90;;;1.40;;
2388;SDS011;1205;47.984;7.668;2023-05-10T02:59:22;2.30;;;1.70;;
2388;SDS011;1205;47.984;7.668;2023-05-10T03:01:47;1.67;;;1.57;;
2388;SDS011;1205;47.984;7.668;2023-05-10T03:04:13;1.60;;;1.50;;
2388;SDS011;1205;47.984;7.668;2023-05-10T03:06:38;2.10;;;1.90;;
2388;SDS011;1205;47.984;7.668;2023-05-10T03:09:04;1.83;;;1.80;;
2388;SDS011;1205;47.984;7.668;2023-05-10T03:16:45;1.60;;;1.50;;
2388;SDS011;1205;47.984;7.668;2023-05-10T03:19:22;1.80;;;1.70;;
2388;SDS011;1205;47.984;7.668;2023-05-10T03:21:52;2.93;;;1.73;;
2388;SDS011;1205;47.984;7.668;2023-05-10T03:24:22;1.50;;;1.40;;
2388;SDS011;1205;47.984;7.668;2023-05-10T03:26:51;2.10;;;2.00;;
2388;SDS011;1205;47.984;7.668;2023-05-10T03:29:21;1.53;;;1.43;;
2388;SDS011;1205;47.984;7.668;2023-05-10T03:31:50;1.90;;;1.80;;
2388;SDS011;1205;47.984;7.668;2023-05-10T03:34:16;2.40;;;1.70;;
2388;SDS011;1205;47.984;7.668;2023-05-10T03:36:43;1.87;;;1.77;;
2388;SDS011;1205;47.984;7.668;2023-05-10T03:39:08;5.13;;;1.50;;
2388;SDS011;1205;47.984;7.668;2023-05-10T03:41:35;1.77;;;1.67;;
2388;SDS011;1205;47.984;7.668;2023-05-10T03:44:00;3.13;;;1.50;;
2388;SDS011;1205;47.984;7.668;2023-05-10T03:46:26;3.40;;;2.10;;
2388;SDS011;1205;47.984;7.668;2023-05-10T03:48:52;1.67;;;1.37;;
2388;SDS011;1205;47.984;7.668;2023-05-10T03:51:17;1.40;;;1.30;;
2388;SDS011;1205;47.984;7.668;2023-05-10T03:53:43;1.70;;;1.57;;
2388;SDS011;1205;47.984;7.668;2023-05-10T03:56:08;2.70;;;1.80;;
2388;SDS011;1205;47.984;7.668;2023-05-10T03:58:34;2.53;;;1.57;;
2388;SDS011;1205;47.984;7.668;2023-05-10T04:00:59;7.23;;;1.30;;
2388;SDS011;1205;47.984;7.668;2023-05-10T04:03:25;1.70;;;1.60;;
2388;SDS011;1205;47.984;7.668;2023-05-10T04:05:58;1.37;;;1.37;;
2388;SDS011;1205;47.984;7.668;2023-05-10T04:08:27;1.60;;;1.20;;
2388;SDS011;1205;47.984;7.668;2023-05-10T04:10:53;1.43;;;1.20;;
2388;SDS011;1205;47.984;7.668;2023-05-10T04:13:18;2.90;;;1.50;;
2388;SDS011;1205;47.984;7.668;2023-05-10T04:15:44;3.07;;;1.50;;
2388;SDS011;1205;47.984;7.668;2023-05-10T04:18:10;1.50;;;1.40;;
2388;SDS011;1205;47.984;7.668;2023-05-10T04:20:36;1.60;;;1.50;;
2388;SDS011;1205;47.984;7.668;2023-05-10T04:23:02;1.60;;;1.50;;
2388;SDS011;1205;47.984;7.668;2023-05-10T04:25:28;2.70;;;1.47;;
2388;SDS011;1205;47.984;7.668;2023-05-10T04:27:53;1.47;;;1.37;;
2388;SDS011;1205;47.984;7.668;2023-05-10T04:30:19;1.47;;;1.37;;
2388;SDS011;1205;47.984;7.668;2023-05-10T04:32:44;1.50;;;1.40;;
2388;SDS011;1205;47.984;7.668;2023-05-10T04:35:10;11.40;;;1.73;;
2388;SDS011;1205;47.984;7.668;2023-05-10T04:37:35;2.43;;;1.70;;
2388;SDS011;1205;47.984;7.668;2023-05-10T04:40:01;2.23;;;2.17;;
2388;SDS011;1205;47.984;7.668;2023-05-10T04:42:28;2.00;;;1.70;;
2388;SDS011;1205;47.984;7.668;2023-05-10T04:44:54;1.70;;;1.40;;
2388;SDS011;1205;47.984;7.668;2023-05-10T04:47:19;1.90;;;1.70;;
2388;SDS011;1205;47.984;7.668;2023-05-10T04:49:45;5.80;;;2.87;;
2388;SDS011;1205;47.984;7.668;2023-05-10T04:52:11;2.73;;;1.93;;
2388;SDS011;1205;47.984;7.668;2023-05-10T04:54:36;4.73;;;1.70;;
2388;SDS011;1205;47.984;7.668;2023-05-10T04:57:02;2.83;;;1.83;;
2388;SDS011;1205;47.984;7.668;2023-05-10T04:59:28;1.83;;;1.73;;
2388;SDS011;1205;47.984;7.668;2023-05-10T05:01:53;11.10;;;2.30;;
2388;SDS011;1205;47.984;7.668;2023-05-10T05:04:19;2.77;;;1.97;;
2388;SDS011;1205;47.984;7.668;2023-05-10T05:06:44;1.90;;;1.80;;
2388;SDS011;1205;47.984;7.668;2023-05-10T05:09:10;4.53;;;1.80;;
2388;SDS011;1205;47.984;7.668;2023-05-10T05:11:35;1.60;;;1.50;;
2388;SDS011;1205;47.984;7.668;2023-05-10T05:14:01;1.40;;;1.40;;
2388;SDS011;1205;47.984;7.668;2023-05-10T05:16:26;2.27;;;1.80;;
2388;SDS011;1205;47.984;7.668;2023-05-10T05:18:52;4.23;;;2.07;;
2388;SDS011;1205;47.984;7.668;2023-05-10T05:21:18;1.90;;;1.80;;
2388;SDS011;1205;47.984;7.668;2023-05-10T05:23:44;3.53;;;1.87;;
2388;SDS011;1205;47.984;7.668;2023-05-10T05:26:10;1.63;;;1.53;;
2388;SDS011;1205;47.984;7.668;2023-05-10T05:28:36;2.23;;;1.83;;
2388;SDS011;1205;47.984;7.668;2023-05-10T05:31:06;2.23;;;2.10;;
2388;SDS011;1205;47.984;7.668;2023-05-10T05:33:35;1.93;;;1.83;;
2388;SDS011;1205;47.984;7.668;2023-05-10T05:36:01;2.97;;;1.93;;
2388;SDS011;1205;47.984;7.668;2023-05-10T05:38:28;4.03;;;2.20;;
2388;SDS011;1205;47.984;7.668;2023-05-10T05:40:53;6.93;;;1.57;;
2388;SDS011;1205;47.984;7.668;2023-05-10T05:43:19;2.63;;;2.10;;
2388;SDS011;1205;47.984;7.668;2023-05-10T05:45:45;4.67;;;2.20;;
2388;SDS011;1205;47.984;7.668;2023-05-10T05:48:10;2.10;;;2.00;;
2388;SDS011;1205;47.984;7.668;2023-05-10T05:50:36;1.40;;;1.40;;
2388;SDS011;1205;47.984;7.668;2023-05-10T05:53:02;2.00;;;1.80;;
2388;SDS011;1205;47.984;7.668;2023-05-10T05:55:27;3.77;;;1.63;;
2388;SDS011;1205;47.984;7.668;2023-05-10T05:57:54;2.20;;;1.93;;
2388;SDS011;1205;47.984;7.668;2023-05-10T06:00:20;1.50;;;1.40;;
2388;SDS011;1205;47.984;7.668;2023-05-10T06:02:46;1.73;;;1.60;;
2388;SDS011;1205;47.984;7.668;2023-05-10T06:05:12;11.10;;;1.70;;
2388;SDS011;1205;47.984;7.668;2023-05-10T06:07:38;1.77;;;1.67;;
2388;SDS011;1205;47.984;7.668;2023-05-10T06:10:07;2.43;;;1.70;;
2388;SDS011;1205;47.984;7.668;2023-05-10T06:12:33;4.40;;;1.30;;
2388;SDS011;1205;47.984;7.668;2023-05-10T06:14:59;1.43;;;1.33;;
2388;SDS011;1205;47.984;7.668;2023-05-10T06:17:25;1.30;;;1.30;;
2388;SDS011;1205;47.984;7.668;2023-05-10T06:19:52;2.60;;;1.30;;
2388;SDS011;1205;47.984;7.668;2023-05-10T06:22:18;2.67;;;1.40;;
2388;SDS011;1205;47.984;7.668;2023-05-10T06:24:43;6.30;;;1.73;;
2388;SDS011;1205;47.984;7.668;2023-05-10T06:27:09;3.07;;;1.50;;
2388;SDS011;1205;47.984;7.668;2023-05-10T06:29:35;3.27;;;1.73;;
2388;SDS011;1205;47.984;7.668;2023-05-10T06:32:00;5.40;;;1.63;;
2388;SDS011;1205;47.984;7.668;2023-05-10T06:34:26;1.90;;;1.60;;
2388;SDS011;1205;47.984;7.668;2023-05-10T06:36:51;1.03;;;1.03;;
2388;SDS011;1205;47.984;7.668;2023-05-10T06:39:17;1.60;;;1.40;;
2388;SDS011;1205;47.984;7.668;2023-05-10T06:41:43;2.20;;;1.57;;
2388;SDS011;1205;47.984;7.668;2023-05-10T06:44:09;2.80;;;2.07;;
2388;SDS011;1205;47.984;7.668;2023-05-10T06:46:34;3.73;;;1.60;;
2388;SDS011;1205;47.984;7.668;2023-05-10T06:49:00;9.40;;;1.80;;
2388;SDS011;1205;47.984;7.668;2023-05-10T06:51:26;2.00;;;1.60;;
2388;SDS011;1205;47.984;7.668;2023-05-10T06:53:51;2.50;;;1.33;;
2388;SDS011;1205;47.984;7.668;2023-05-10T06:56:17;3.23;;;1.30;;
2388;SDS011;1205;47.984;7.668;2023-05-10T06:58:42;4.27;;;1.33;;
2388;SDS011;1205;47.984;7.668;2023-05-10T07:01:08;8.80;;;1.53;;
2388;SDS011;1205;47.984;7.668;2023-05-10T07:03:33;6.00;;;1.40;;
2388;SDS011;1205;47.984;7.668;2023-05-10T07:06:00;1.37;;;1.20;;
2388;SDS011;1205;47.984;7.668;2023-05-10T07:08:28;2.40;;;1.67;;
2388;SDS011;1205;47.984;7.668;2023-05-10T07:10:59;3.87;;;1.30;;
2388;SDS011;1205;47.984;7.668;2023-05-10T07:13:25;2.30;;;1.10;;
2388;SDS011;1205;47.984;7.668;2023-05-10T07:15:51;1.67;;;1.37;;
2388;SDS011;1205;47.984;7.668;2023-05-10T07:18:16;2.10;;;1.80;;
2388;SDS011;1205;47.984;7.668;2023-05-10T07:20:42;7.73;;;4.43;;
2388;SDS011;1205;47.984;7.668;2023-05-10T07:23:07;5.07;;;4.57;;
2388;SDS011;1205;47.984;7.668;2023-05-10T07:25:33;6.17;;;4.77;;
2388;SDS011;1205;47.984;7.668;2023-05-10T07:27:58;2.10;;;2.00;;
2388;SDS011;1205;47.984;7.668;2023-05-10T07:30:24;5.13;;;1.63;;
2388;SDS011;1205;47.984;7.668;2023-05-10T07:32:49;1.60;;;1.50;;
2388;SDS011;1205;47.984;7.668;2023-05-10T07:35:15;4.53;;;1.40;;
2388;SDS011;1205;47.984;7.668;2023-05-10T07:37:40;5.90;;;1.47;;
2388;SDS011;1205;47.984;7.668;2023-05-10T07:40:06;2.27;;;1.23;;
2388;SDS011;1205;47.984;7.668;2023-05-10T07:42:32;3.13;;;1.17;;
2388;SDS011;1205;47.984;7.668;2023-05-10T07:44:58;4.10;;;1.13;;
2388;SDS011;1205;47.984;7.668;2023-05-10T07:47:23;2.30;;;1.57;;
2388;SDS011;1205;47.984;7.668;2023-05-10T07:49:49;2.13;;;1.40;;
2388;SDS011;1205;47.984;7.668;2023-05-10T07:52:14;3.43;;;1.10;;
2388;SDS011;1205;47.984;7.668;2023-05-10T07:54:40;8.43;;;1.60;;
2388;SDS011;1205;47.984;7.668;2023-05-10T07:57:05;9.07;;;1.47;;
2388;SDS011;1205;47.984;7.668;2023-05-10T07:59:31;2.17;;;1.30;;
2388;SDS011;1205;47.984;7.668;2023-05-10T08:01:57;3.90;;;1.27;;
2388;SDS011;1205;47.984;7.668;2023-05-10T08:04:23;1.60;;;0.93;;
2388;SDS011;1205;47.984;7.668;2023-05-10T08:06:49;4.73;;;1.10;;
2388;SDS011;1205;47.984;7.668;2023-05-10T08:09:14;2.60;;;1.30;;
2388;SDS011;1205;47.984;7.668;2023-05-10T08:11:41;8.60;;;1.40;;
2388;SDS011;1205;47.984;7.668;2023-05-10T08:14:06;3.90;;;1.30;;
2388;SDS011;1205;47.984;7.668;2023-05-10T08:16:32;1.00;;;0.93;;
2388;SDS011;1205;47.984;7.668;2023-05-10T08:18:57;1.80;;;1.20;;
2388;SDS011;1205;47.984;7.668;2023-05-10T08:21:23;4.63;;;1.47;;
2388;SDS011;1205;47.984;7.668;2023-05-10T08:23:48;0.97;;;0.97;;
2388;SDS011;1205;47.984;7.668;2023-05-10T08:26:14;2.50;;;1.33;;
2388;SDS011;1205;47.984;7.668;2023-05-10T08:28:40;1.33;;;1.07;;
2388;SDS011;1205;47.984;7.668;2023-05-10T08:31:05;1.30;;;1.20;;
2388;SDS011;1205;47.984;7.668;2023-05-10T08:33:31;0.90;;;0.90;;
2388;SDS011;1205;47.984;7.668;2023-05-10T08:35:56;1.10;;;1.00;;
2388;SDS011;1205;47.984;7.668;2023-05-10T08:38:22;1.53;;;1.03;;
2388;SDS011;1205;47.984;7.668;2023-05-10T08:40:48;1.43;;;1.20;;
2388;SDS011;1205;47.984;7.668;2023-05-10T08:43:15;1.90;;;0.93;;
2388;SDS011;1205;47.984;7.668;2023-05-10T08:45:42;1.47;;;1.10;;
2388;SDS011;1205;47.984;7.668;2023-05-10T08:48:11;2.03;;;1.23;;
2388;SDS011;1205;47.984;7.668;2023-05-10T08:50:38;5.37;;;1.30;;
2388;SDS011;1205;47.984;7.668;2023-05-10T08:53:06;2.50;;;1.10;;
2388;SDS011;1205;47.984;7.668;2023-05-10T08:55:36;2.87;;;0.93;;
2388;SDS011;1205;47.984;7.668;2023-05-10T08:58:03;3.13;;;1.10;;
2388;SDS011;1205;47.984;7.668;2023-05-10T09:00:30;2.80;;;0.80;;
2388;SDS011;1205;47.984;7.668;2023-05-10T09:02:57;1.33;;;0.93;;
2388;SDS011;1205;47.984;7.668;2023-05-10T09:05:23;2.90;;;0.90;;
2388;SDS011;1205;47.984;7.668;2023-05-10T09:07:48;4.93;;;0.90;;
2388;SDS011;1205;47.984;7.668;2023-05-10T09:10:14;2.63;;;1.03;;
2388;SDS011;1205;47.984;7.668;2023-05-10T09:12:40;1.73;;;0.87;;
2388;SDS011;1205;47.984;7.668;2023-05-10T09:15:07;2.30;;;1.20;;
2388;SDS011;1205;47.984;7.668;2023-05-10T09:17:34;1.47;;;0.90;;
2388;SDS011;1205;47.984;7.668;2023-05-10T09:20:00;2.10;;;0.90;;
2388;SDS011;1205;47.984;7.668;2023-05-10T09:22:27;3.30;;;1.33;;
2388;SDS011;1205;47.984;7.668;2023-05-10T09:25:08;7.03;;;1.23;;
2388;SDS011;1205;47.984;7.668;2023-05-10T09:27:36;2.50;;;0.90;;
2388;SDS011;1205;47.984;7.668;2023-05-10T09:30:03;1.47;;;0.93;;
2388;SDS011;1205;47.984;7.668;2023-05-10T09:32:45;2.10;;;1.27;;
2388;SDS011;1205;47.984;7.668;2023-05-10T09:35:16;1.57;;;0.80;;
2388;SDS011;1205;47.984;7.668;2023-05-10T09:37:45;2.03;;;0.70;;
2388;SDS011;1205;47.984;7.668;2023-05-10T09:40:25;0.97;;;0.50;;
2388;SDS011;1205;47.984;7.668;2023-05-10T09:43:26;2.90;;;1.13;;
2388;SDS011;1205;47.984;7.668;2023-05-10T09:45:45;0.97;;;0.73;;
2388;SDS011;1205;47.984;7.668;2023-05-10T09:48:14;1.50;;;0.80;;
2388;SDS011;1205;47.984;7.668;2023-05-10T09:50:40;0.60;;;0.50;;
2388;SDS011;1205;47.984;7.668;2023-05-10T09:53:06;1.10;;;0.60;;
2388;SDS011;1205;47.984;7.668;2023-05-10T09:58:01;3.10;;;0.93;;
2388;SDS011;1205;47.984;7.668;2023-05-10T10:00:27;0.80;;;0.77;;
2388;SDS011;1205;47.984;7.668;2023-05-10T10:02:59;0.60;;;0.60;;
2388;SDS011;1205;47.984;7.668;2023-05-10T10:05:28;6.20;;;0.90;;
2388;SDS011;1205;47.984;7.668;2023-05-10T10:07:55;0.70;;;0.70;;
2388;SDS011;1205;47.984;7.668;2023-05-10T10:10:22;2.93;;;1.07;;
2388;SDS011;1205;47.984;7.668;2023-05-10T10:12:48;2.70;;;0.97;;
2388;SDS011;1205;47.984;7.668;2023-05-10T10:15:14;3.13;;;1.17;;
2388;SDS011;1205;47.984;7.668;2023-05-10T10:17:40;3.50;;;1.30;;
2388;SDS011;1205;47.984;7.668;2023-05-10T10:20:06;3.23;;;1.57;;
2388;SDS011;1205;47.984;7.668;2023-05-10T10:22:32;4.77;;;1.20;;
2388;SDS011;1205;47.984;7.668;2023-05-10T10:24:58;5.63;;;1.13;;
2388;SDS011;1205;47.984;7.668;2023-05-10T10:27:26;1.20;;;0.77;;
2388;SDS011;1205;47.984;7.668;2023-05-10T10:33:06;4.67;;;0.77;;
2388;SDS011;1205;47.984;7.668;2023-05-10T10:35:45;3.07;;;1.20;;
2388;SDS011;1205;47.984;7.668;2023-05-10T10:38:12;2.33;;;1.67;;
2388;SDS011;1205;47.984;7.668;2023-05-10T10:40:38;2.07;;;0.90;;
2388;SDS011;1205;47.984;7.668;2023-05-10T10:43:25;4.07;;;1.23;;
2388;SDS011;1205;47.984;7.668;2023-05-10T10:48:43;3.70;;;1.10;;
2388;SDS011;1205;47.984;7.668;2023-05-10T10:51:13;2.43;;;0.87;;
2388;SDS011;1205;47.984;7.668;2023-05-10T10:53:39;3.03;;;1.30;;
2388;SDS011;1205;47.984;7.668;2023-05-10T10:56:06;5.40;;;1.60;;
2388;SDS011;1205;47.984;7.668;2023-05-10T10:58:34;3.10;;;1.50;;
2388;SDS011;1205;47.984;7.668;2023-05-10T11:04:16;3.47;;;1.10;;
2388;SDS011;1205;47.984;7.668;2023-05-10T11:06:35;2.30;;;1.10;;
2388;SDS011;1205;47.984;7.668;2023-05-10T11:09:07;1.67;;;1.10;;
2388;SDS011;1205;47.984;7.668;2023-05-10T11:11:34;1.70;;;0.80;;
2388;SDS011;1205;47.984;7.668;2023-05-10T11:14:04;1.20;;;1.00;;
2388;SDS011;1205;47.984;7.668;2023-05-10T11:16:42;2.97;;;1.30;;
2388;SDS011;1205;47.984;7.668;2023-05-10T11:19:09;0.90;;;0.90;;
2388;SDS011;1205;47.984;7.668;2023-05-10T11:21:49;3.07;;;1.00;;
2388;SDS011;1205;47.984;7.668;2023-05-10T11:24:17;1.00;;;0.90;;
2388;SDS011;1205;47.984;7.668;2023-05-10T11:26:47;2.20;;;1.00;;
2388;SDS011;1205;47.984;7.668;2023-05-10T11:29:16;3.27;;;1.20;;
2388;SDS011;1205;47.984;7.668;2023-05-10T11:31:45;1.77;;;0.70;;
2388;SDS011;1205;47.984;7.668;2023-05-10T11:34:12;2.30;;;0.83;;
2388;SDS011;1205;47.984;7.668;2023-05-10T11:36:52;0.83;;;0.80;;
2388;SDS011;1205;47.984;7.668;2023-05-10T11:39:19;1.27;;;0.97;;
2388;SDS011;1205;47.984;7.668;2023-05-10T11:41:48;2.03;;;0.80;;
2388;SDS011;1205;47.984;7.668;2023-05-10T11:44:14;2.70;;;1.13;;
2388;SDS011;1205;47.984;7.668;2023-05-10T11:46:39;1.77;;;1.10;;
2388;SDS011;1205;47.984;7.668;2023-05-10T11:49:06;1.13;;;1.00;;
2388;SDS011;1205;47.984;7.668;2023-05-10T11:51:33;1.63;;;1.10;;
2388;SDS011;1205;47.984;7.668;2023-05-10T11:54:00;2.67;;;0.87;;
2388;SDS011;1205;47.984;7.668;2023-05-10T11:56:27;3.80;;;1.03;;
2388;SDS011;1205;47.984;7.668;2023-05-10T11:58:53;1.70;;;0.70;;
2388;SDS011;1205;47.984;7.668;2023-05-10T12:01:21;2.97;;;1.00;;
2388;SDS011;1205;47.984;7.668;2023-05-10T12:03:47;1.90;;;1.03;;
2388;SDS011;1205;47.984;7.668;2023-05-10T12:06:18;1.17;;;0.77;;
2388;SDS011;1205;47.984;7.668;2023-05-10T12:08:45;2.10;;;0.97;;
2388;SDS011;1205;47.984;7.668;2023-05-10T12:11:12;5.63;;;1.00;;
2388;SDS011;1205;47.984;7.668;2023-05-10T12:13:42;2.30;;;0.90;;
2388;SDS011;1205;47.984;7.668;2023-05-10T12:16:17;1.93;;;0.90;;
2388;SDS011;1205;47.984;7.668;2023-05-10T12:18:51;0.77;;;0.60;;
2388;SDS011;1205;47.984;7.668;2023-05-10T12:21:18;1.50;;;0.60;;
2388;SDS011;1205;47.984;7.668;2023-05-10T12:23:46;2.10;;;0.90;;
2388;SDS011;1205;47.984;7.668;2023-05-10T12:26:14;3.87;;;1.10;;
2388;SDS011;1205;47.984;7.668;2023-05-10T12:28:40;3.60;;;0.80;;
2388;SDS011;1205;47.984;7.668;2023-05-10T12:31:06;0.60;;;0.50;;
2388;SDS011;1205;47.984;7.668;2023-05-10T12:33:36;2.90;;;0.63;;
2388;SDS011;1205;47.984;7.668;2023-05-10T12:36:04;1.00;;;0.90;;
2388;SDS011;1205;47.984;7.668;2023-05-10T12:38:34;0.70;;;0.70;;
2388;SDS011;1205;47.984;7.668;2023-05-10T12:41:07;0.97;;;0.50;;
2388;SDS011;1205;47.984;7.668;2023-05-10T12:43:37;0.70;;;0.70;;
2388;SDS011;1205;47.984;7.668;2023-05-10T12:46:07;1.97;;;0.67;;
2388;SDS011;1205;47.984;7.668;2023-05-10T12:48:37;0.67;;;0.50;;
2388;SDS011;1205;47.984;7.668;2023-05-10T12:51:04;0.57;;;0.53;;
2388;SDS011;1205;47.984;7.668;2023-05-10T12:53:30;1.60;;;0.80;;
2388;SDS011;1205;47.984;7.668;2023-05-10T12:55:56;0.80;;;0.60;;
2388;SDS011;1205;47.984;7.668;2023-05-10T12:58:22;0.93;;;0.60;;
2388;SDS011;1205;47.984;7.668;2023-05-10T13:00:48;6.17;;;0.60;;
2388;SDS011;1205;47.984;7.668;2023-05-10T13:03:13;1.37;;;0.60;;
2388;SDS011;1205;47.984;7.668;2023-05-10T13:05:40;1.33;;;0.47;;
2388;SDS011;1205;47.984;7.668;2023-05-10T13:08:06;0.50;;;0.50;;
2388;SDS011;1205;47.984;7.668;2023-05-10T13:10:31;3.13;;;0.67;;
2388;SDS011;1205;47.984;7.668;2023-05-10T13:12:57;0.50;;;0.50;;
2388;SDS011;1205;47.984;7.668;2023-05-10T13:15:24;3.63;;;1.23;;
2388;SDS011;1205;47.984;7.668;2023-05-10T13:17:50;2.40;;;0.70;;
2388;SDS011;1205;47.984;7.668;2023-05-10T13:20:16;1.07;;;0.57;;
2388;SDS011;1205;47.984;7.668;2023-05-10T13:22:42;0.50;;;0.50;;
2388;SDS011;1205;47.984;7.668;2023-05-10T13:25:09;0.70;;;0.60;;
2388;SDS011;1205;47.984;7.668;2023-05-10T13:27:35;0.87;;;0.80;;
2388;SDS011;1205;47.984;7.668;2023-05-10T13:30:01;3.43;;;1.00;;
2388;SDS011;1205;47.984;7.668;2023-05-10T13:32:28;0.50;;;0.50;;
2388;SDS011;1205;47.984;7.668;2023-05-10T13:34:54;0.70;;;0.70;;
2388;SDS011;1205;47.984;7.668;2023-05-10T13:37:20;0.60;;;0.50;;
2388;SDS011;1205;47.984;7.668;2023-05-10T13:39:46;0.70;;;0.63;;
2388;SDS011;1205;47.984;7.668;2023-05-10T13:42:12;0.60;;;0.60;;
2388;SDS011;1205;47.984;7.668;2023-05-10T13:44:37;0.87;;;0.60;;
2388;SDS011;1205;47.984;7.668;2023-05-10T13:47:03;0.73;;;0.50;;
2388;SDS011;1205;47.984;7.668;2023-05-10T13:49:29;0.40;;;0.40;;
2388;SDS011;1205;47.984;7.668;2023-05-10T13:51:55;0.50;;;0.50;;
2388;SDS011;1205;47.984;7.668;2023-05-10T13:54:21;0.50;;;0.50;;
2388;SDS011;1205;47.984;7.668;2023-05-10T13:56:47;0.50;;;0.50;;
2388;SDS011;1205;47.984;7.668;2023-05-10T13:59:13;0.50;;;0.50;;
2388;SDS011;1205;47.984;7.668;2023-05-10T14:01:39;0.50;;;0.50;;
2388;SDS011;1205;47.984;7.668;2023-05-10T14:04:05;0.40;;;0.40;;
2388;SDS011;1205;47.984;7.668;2023-05-10T14:06:31;0.40;;;0.40;;
2388;SDS011;1205;47.984;7.668;2023-05-10T14:08:57;4.47;;;0.60;;
2388;SDS011;1205;47.984;7.668;2023-05-10T14:11:23;1.53;;;0.60;;
2388;SDS011;1205;47.984;7.668;2023-05-10T14:13:48;0.80;;;0.53;;
2388;SDS011;1205;47.984;7.668;2023-05-10T14:16:14;0.50;;;0.50;;
2388;SDS011;1205;47.984;7.668;2023-05-10T14:18:39;0.83;;;0.40;;
2388;SDS011;1205;47.984;7.668;2023-05-10T14:21:05;1.40;;;0.70;;
2388;SDS011;1205;47.984;7.668;2023-05-10T14:23:31;0.73;;;0.50;;
2388;SDS011;1205;47.984;7.668;2023-05-10T14:25:56;0.60;;;0.50;;
2388;SDS011;1205;47.984;7.668;2023-05-10T14:28:22;0.60;;;0.60;;
2388;SDS011;1205;47.984;7.668;2023-05-10T14:30:48;1.90;;;0.50;;
2388;SDS011;1205;47.984;7.668;2023-05-10T14:33:15;1.73;;;0.77;;
2388;SDS011;1205;47.984;7.668;2023-05-10T14:35:41;0.80;;;0.57;;
2388;SDS011;1205;47.984;7.668;2023-05-10T14:38:07;1.70;;;0.80;;
2388;SDS011;1205;47.984;7.668;2023-05-10T14:40:33;0.60;;;0.60;;
2388;SDS011;1205;47.984;7.668;2023-05-10T14:42:59;1.33;;;0.50;;
2388;SDS011;1205;47.984;7.668;2023-05-10T14:45:24;0.53;;;0.53;;
2388;SDS011;1205;47.984;7.668;2023-05-10T14:47:50;0.70;;;0.70;;
2388;SDS011;1205;47.984;7.668;2023-05-10T14:50:16;1.13;;;0.70;;
2388;SDS011;1205;47.984;7.668;2023-05-10T14:52:42;0.80;;;0.60;;
2388;SDS011;1205;47.984;7.668;2023-05-10T14:55:09;1.47;;;0.67;;
2388;SDS011;1205;47.984;7.668;2023-05-10T14:57:34;0.50;;;0.40;;
2388;SDS011;1205;47.984;7.668;2023-05-10T15:00:00;1.40;;;0.50;;
2388;SDS011;1205;47.984;7.668;2023-05-10T15:02:26;0.50;;;0.50;;
2388;SDS011;1205;47.984;7.668;2023-05-10T15:04:52;3.30;;;0.50;;
2388;SDS011;1205;47.984;7.668;2023-05-10T15:07:17;1.03;;;0.70;;
2388;SDS011;1205;47.984;7.668;2023-05-10T15:09:43;0.70;;;0.70;;
2388;SDS011;1205;47.984;7.668;2023-05-10T15:12:09;2.30;;;0.80;;
2388;SDS011;1205;47.984;7.668;2023-05-10T15:14:35;0.77;;;0.57;;
2388;SDS011;1205;47.984;7.668;2023-05-10T15:17:01;1.03;;;0.60;;
2388;SDS011;1205;47.984;7.668;2023-05-10T15:19:27;2.77;;;0.60;;
2388;SDS011;1205;47.984;7.668;2023-05-10T15:21:54;0.50;;;0.50;;
2388;SDS011;1205;47.984;7.668;2023-05-10T15:24:20;0.60;;;0.60;;
2388;SDS011;1205;47.984;7.668;2023-05-10T15:26:46;0.70;;;0.67;;
2388;SDS011;1205;47.984;7.668;2023-05-10T15:29:12;1.90;;;0.50;;
2388;SDS011;1205;47.984;7.668;2023-05-10T15:31:44;2.90;;;0.77;;
2388;SDS011;1205;47.984;7.668;2023-05-10T15:34:13;0.60;;;0.60;;
2388;SDS011;1205;47.984;7.668;2023-05-10T15:36:39;0.70;;;0.60;;
2388;SDS011;1205;47.984;7.668;2023-05-10T15:39:04;0.50;;;0.50;;
2388;SDS011;1205;47.984;7.668;2023-05-10T15:41:30;0.50;;;0.50;;
2388;SDS011;1205;47.984;7.668;2023-05-10T15:43:56;0.50;;;0.50;;
2388;SDS011;1205;47.984;7.668;2023-05-10T15:46:24;10.67;;;1.63;;
2388;SDS011;1205;47.984;7.668;2023-05-10T15:48:50;0.80;;;0.53;;